Time;durP1;ratioP1;P1;durP2;ratioP2;P2;SDS_P1;SDS_P2;PMS_P1;PMS_P2;Temp;Humidity;BMP_temperature;BMP_pressure;BME280_temperature;BME280_humidity;BME280_pressure;Samples;Min_cycle;Max_cycle;Signal;HPM_P1;HPM_P2
2022/10/19 00:00:15;;;;;;;;;;;;;;;13.95;64.77;102243.19;5065510;28;19926;-64
2022/10/19 00:02:41;;;;;;;;;;;;;;;13.95;64.84;102244.94;5066369;28;20013;-63
2022/10/19 00:05:06;;;;;;;;;;;;;;;13.89;64.97;102247.91;5062653;28;19935;-62
2022/10/19 00:07:32;;;;;;;;;;;;;;;13.86;65.08;102255.06;5061510;28;20533;-60
2022/10/19 00:09:57;;;;;;;;;;;;;;;13.87;65.09;102250.59;5061203;28;20425;-64
2022/10/19 00:12:23;;;;;;;;;;;;;;;13.83;65.05;102244.63;5062873;28;19947;-63
2022/10/19 00:14:48;;;;;;;;;;;;;;;13.86;65.24;102243.59;5061340;28;19959;-64
2022/10/19 00:17:13;;;;;;;;;;;;;;;13.88;65.08;102249.69;5062170;28;20533;-64
2022/10/19 00:19:39;;;;;;;;;;;;;;;13.89;65.33;102254.03;5064015;28;19951;-62
2022/10/19 00:22:04;;;;;;;;;;;;;;;13.91;65.25;102254.00;5065255;28;19924;-62
2022/10/19 00:24:29;;;;;;;;;;;;;;;13.92;65.27;102253.91;5062682;28;19917;-64
2022/10/19 00:26:55;;;;;;;;;;;;;;;13.93;65.31;102254.75;5060111;28;19920;-64
2022/10/19 00:29:20;;;;;;;;;;;;;;;13.92;65.36;102245.09;5063317;28;20428;-63
2022/10/19 00:31:47;;;;;;;;;;;;;;;13.95;65.23;102252.88;5064669;28;20070;-64
2022/10/19 00:34:12;;;;;;;;;;;;;;;13.95;65.19;102250.25;5041199;28;19963;-64
2022/10/19 00:36:39;;;;;;;;;;;;;;;13.98;65.30;102256.28;5064052;28;20005;-64
2022/10/19 00:39:06;;;;;;;;;;;;;;;13.96;65.31;102255.47;5062479;28;20393;-62
2022/10/19 00:41:32;;;;;;;;;;;;;;;13.95;65.65;102252.88;5061000;28;19928;-64
2022/10/19 00:43:59;;;;;;;;;;;;;;;13.96;65.47;102252.84;5064514;28;19954;-64
2022/10/19 00:46:25;;;;;;;;;;;;;;;13.99;65.45;102255.31;5063055;28;20021;-63
2022/10/19 00:48:53;;;;;;;;;;;;;;;14.04;65.23;102252.47;5064438;28;19935;-63
2022/10/19 00:51:19;;;;;;;;;;;;;;;14.08;65.13;102250.53;5065747;28;20416;-58
2022/10/19 00:53:44;;;;;;;;;;;;;;;14.14;65.17;102263.47;5061292;28;19925;-58
2022/10/19 00:56:11;;;;;;;;;;;;;;;14.12;65.01;102262.69;5059769;28;19924;-63
2022/10/19 00:58:37;;;;;;;;;;;;;;;14.12;65.05;102262.69;5061988;28;19935;-58
2022/10/19 01:01:04;;;;;;;;;;;;;;;14.10;64.99;102256.59;5062693;28;19920;-62
2022/10/19 01:03:30;;;;;;;;;;;;;;;14.06;65.12;102262.97;5054364;28;19928;-58
2022/10/19 01:05:56;;;;;;;;;;;;;;;14.06;65.14;102260.31;5055792;28;19939;-58
2022/10/19 01:08:22;;;;;;;;;;;;;;;14.04;64.99;102257.75;5056201;28;20044;-59
2022/10/19 01:10:57;;;;;;;;;;;;;;;14.01;65.09;102257.91;5060079;28;20449;-61
2022/10/19 01:13:34;;;;;;;;;;;;;;;13.95;65.05;102253.75;5057110;28;19928;-59
2022/10/19 01:16:06;;;;;;;;;;;;;;;13.92;65.14;102247.75;5054548;28;20055;-61
2022/10/19 01:18:41;;;;;;;;;;;;;;;13.89;65.18;102243.47;5060651;28;19977;-58
2022/10/19 01:21:11;;;;;;;;;;;;;;;13.86;65.20;102243.59;5059114;28;19929;-61
2022/10/19 01:23:46;;;;;;;;;;;;;;;13.86;65.25;102243.59;5058702;28;19928;-61
2022/10/19 01:26:40;;;;;;;;;;;;;;;13.87;65.09;102243.53;5060410;28;19970;-62
2022/10/19 01:29:29;;;;;;;;;;;;;;;13.88;65.18;102241.75;4991378;28;19926;-58
2022/10/19 01:31:54;;;;;;;;;;;;;;;13.84;65.04;102245.50;5047239;28;19979;-61
2022/10/19 01:34:38;;;;;;;;;;;;;;;13.80;65.35;102235.97;5064509;28;19920;-59
2022/10/19 01:37:06;;;;;;;;;;;;;;;13.82;65.34;102231.47;5066607;28;19921;-59
2022/10/19 01:39:40;;;;;;;;;;;;;;;13.83;65.28;102233.19;5056057;28;19927;-58
2022/10/19 01:42:24;;;;;;;;;;;;;;;13.84;65.24;102224.31;5053276;28;19935;-63
2022/10/19 01:44:59;;;;;;;;;;;;;;;13.83;64.99;102223.44;5064678;28;19920;-62
2022/10/19 01:47:32;;;;;;;;;;;;;;;13.80;65.01;102223.59;5062244;28;19963;-63
2022/10/19 01:50:01;;;;;;;;;;;;;;;13.80;65.07;102213.00;5064592;28;19936;-62
2022/10/19 01:52:26;;;;;;;;;;;;;;;13.79;64.85;102210.44;5062690;28;19916;-64
2022/10/19 01:54:57;;;;;;;;;;;;;;;13.79;65.04;102216.59;5060082;28;19925;-64
2022/10/19 01:57:29;;;;;;;;;;;;;;;13.74;64.97;102223.91;5064966;28;20385;-62
2022/10/19 01:59:56;;;;;;;;;;;;;;;13.65;65.05;102225.19;5065123;28;20000;-61
2022/10/19 02:02:22;;;;;;;;;;;;;;;13.61;65.10;102223.59;5061494;28;19973;-61
2022/10/19 02:04:49;;;;;;;;;;;;;;;13.55;65.26;102230.06;5067286;28;19989;-64
2022/10/19 02:07:15;;;;;;;;;;;;;;;13.53;65.42;102226.63;5068934;28;20285;-63
2022/10/19 02:09:40;;;;;;;;;;;;;;;13.54;65.27;102216.88;5061881;28;19949;-62
2022/10/19 02:12:08;;;;;;;;;;;;;;;13.56;65.35;102226.47;5066698;28;19921;-60
2022/10/19 02:14:40;;;;;;;;;;;;;;;13.59;65.33;102220.19;5048073;28;19920;-62
2022/10/19 02:17:09;;;;;;;;;;;;;;;13.60;65.30;102226.34;5070479;28;19923;-63
2022/10/19 02:19:35;;;;;;;;;;;;;;;13.59;65.48;102225.47;5064988;28;19955;-62
2022/10/19 02:22:00;;;;;;;;;;;;;;;13.58;65.41;102234.31;5068493;28;19960;-62
2022/10/19 02:24:25;;;;;;;;;;;;;;;13.59;65.58;102229.91;5057763;28;19924;-64
2022/10/19 02:26:52;;;;;;;;;;;;;;;13.60;65.33;102229.81;5068379;28;19936;-62
2022/10/19 02:29:17;;;;;;;;;;;;;;;13.59;65.37;102225.47;5068751;28;20393;-63
2022/10/19 02:31:44;;;;;;;;;;;;;;;13.59;65.07;102220.19;5069209;28;19920;-61
2022/10/19 02:34:09;;;;;;;;;;;;;;;13.55;65.21;102226.53;5062110;28;19931;-63
2022/10/19 02:36:35;;;;;;;;;;;;;;;13.47;65.15;102216.31;5069585;28;19925;-63
2022/10/19 02:39:00;;;;;;;;;;;;;;;13.41;65.39;102221.91;5065860;28;19939;-62
2022/10/19 02:41:25;;;;;;;;;;;;;;;13.35;65.31;102217.72;5067564;28;19934;-63
2022/10/19 02:43:55;;;;;;;;;;;;;;;13.31;65.30;102221.44;5065293;28;20199;-64
2022/10/19 02:46:33;;;;;;;;;;;;;;;13.25;65.29;102229.63;5062596;28;20285;-63
2022/10/19 02:49:00;;;;;;;;;;;;;;;13.14;65.44;102227.50;5070911;28;19920;-63
2022/10/19 02:51:36;;;;;;;;;;;;;;;13.14;65.41;102229.25;5066346;28;20363;-60
2022/10/19 02:54:02;;;;;;;;;;;;;;;13.13;65.46;102233.69;5068400;28;19922;-62
2022/10/19 02:56:27;;;;;;;;;;;;;;;13.14;65.75;102231.91;5063476;28;19920;-64
2022/10/19 02:58:53;;;;;;;;;;;;;;;13.13;65.46;102232.81;5070345;28;20806;-63
2022/10/19 03:01:18;;;;;;;;;;;;;;;13.14;65.86;102229.25;5066759;28;19927;-63
2022/10/19 03:03:43;;;;;;;;;;;;;;;13.16;65.59;102230.06;5068649;28;19920;-63
2022/10/19 03:06:09;;;;;;;;;;;;;;;13.12;65.66;102234.63;5059794;28;19924;-63
2022/10/19 03:08:34;;;;;;;;;;;;;;;13.08;65.76;102236.53;5063113;28;19944;-64
2022/10/19 03:10:59;;;;;;;;;;;;;;;13.05;65.88;102235.81;5055923;28;19966;-63
2022/10/19 03:13:25;;;;;;;;;;;;;;;13.05;65.96;102235.81;5070572;28;19928;-63
2022/10/19 03:15:50;;;;;;;;;;;;;;;13.08;65.78;102252.38;5069291;28;20011;-62
2022/10/19 03:18:15;;;;;;;;;;;;;;;13.07;65.62;102245.41;5066558;28;19927;-60
2022/10/19 03:20:41;;;;;;;;;;;;;;;13.05;65.81;102241.97;5064642;28;19928;-63
2022/10/19 03:23:06;;;;;;;;;;;;;;;13.04;65.81;102245.53;5068584;28;20019;-63
2022/10/19 03:25:31;;;;;;;;;;;;;;;13.04;65.72;102250.81;5060002;28;19928;-63
2022/10/19 03:27:57;;;;;;;;;;;;;;;13.03;65.61;102246.47;5068275;28;19924;-62
2022/10/19 03:30:22;;;;;;;;;;;;;;;13.01;65.79;102261.53;5068659;28;19924;-60
2022/10/19 03:32:47;;;;;;;;;;;;;;;12.99;65.81;102250.16;5068220;28;19925;-63
2022/10/19 03:35:13;;;;;;;;;;;;;;;13.00;65.69;102258.97;5066168;28;19921;-62
2022/10/19 03:37:38;;;;;;;;;;;;;;;12.99;65.62;102258.09;5065226;28;19970;-60
2022/10/19 03:40:03;;;;;;;;;;;;;;;12.96;65.52;102245.00;5059970;28;19982;-63
2022/10/19 03:42:29;;;;;;;;;;;;;;;12.88;65.71;102245.34;5068036;28;19964;-63
2022/10/19 03:44:54;;;;;;;;;;;;;;;12.84;65.74;102249.06;5044360;28;20743;-61
2022/10/19 03:47:20;;;;;;;;;;;;;;;12.78;65.94;102252.78;5065230;28;20416;-61
2022/10/19 03:49:45;;;;;;;;;;;;;;;12.75;66.07;102255.59;5062821;28;20401;-64
2022/10/19 03:52:10;;;;;;;;;;;;;;;12.72;66.14;102266.28;5066921;28;20375;-62
2022/10/19 03:54:36;;;;;;;;;;;;;;;12.71;65.92;102264.56;5061590;28;19929;-63
2022/10/19 03:57:01;;;;;;;;;;;;;;;12.70;66.12;102275.19;5066396;28;19928;-61
2022/10/19 03:59:26;;;;;;;;;;;;;;;12.71;66.32;102269.84;5065360;28;20405;-63
2022/10/19 04:01:52;;;;;;;;;;;;;;;12.74;66.30;102268.84;5066514;28;19951;-63
2022/10/19 04:04:18;;;;;;;;;;;;;;;12.78;66.36;102276.56;5065703;28;19974;-62
2022/10/19 04:06:44;;;;;;;;;;;;;;;12.84;66.34;102279.88;5061251;28;19923;-59
2022/10/19 04:09:11;;;;;;;;;;;;;;;12.81;66.20;102287.00;5044665;28;20002;-63
2022/10/19 04:11:37;;;;;;;;;;;;;;;12.77;66.58;102284.56;5061572;28;19916;-63
2022/10/19 04:14:02;;;;;;;;;;;;;;;12.69;66.59;102292.81;5060617;28;19928;-64
2022/10/19 04:16:29;;;;;;;;;;;;;;;12.65;67.02;102296.50;5055711;28;19925;-63
2022/10/19 04:18:54;;;;;;;;;;;;;;;12.62;67.12;102286.09;5063384;28;20365;-62
2022/10/19 04:21:27;;;;;;;;;;;;;;;12.59;67.17;102292.34;5070151;28;19931;-64
2022/10/19 04:23:55;;;;;;;;;;;;;;;12.56;67.38;102292.47;5065522;28;20294;-64
2022/10/19 04:26:21;;;;;;;;;;;;;;;12.56;67.54;102291.59;5065712;28;19923;-63
2022/10/19 04:28:46;;;;;;;;;;;;;;;12.53;67.84;102302.28;5067735;28;19920;-63
2022/10/19 04:31:11;;;;;;;;;;;;;;;12.52;67.70;102300.56;5059886;28;20009;-60
2022/10/19 04:33:37;;;;;;;;;;;;;;;12.52;67.92;102297.94;5065697;28;19939;-63
2022/10/19 04:36:04;;;;;;;;;;;;;;;12.54;68.04;102301.38;5069719;28;19920;-62
2022/10/19 04:38:30;;;;;;;;;;;;;;;12.53;68.08;102307.56;5068463;28;19989;-61
2022/10/19 04:40:55;;;;;;;;;;;;;;;12.54;68.29;102301.38;5064564;28;20066;-61
2022/10/19 04:43:21;;;;;;;;;;;;;;;12.57;68.26;102293.34;5065982;28;20292;-64
2022/10/19 04:45:46;;;;;;;;;;;;;;;12.63;68.16;102300.97;5062960;28;20447;-61
2022/10/19 04:48:12;;;;;;;;;;;;;;;12.64;68.00;102300.94;5064536;28;19928;-62
2022/10/19 04:50:37;;;;;;;;;;;;;;;12.68;67.97;102311.38;5066295;28;19916;-62
2022/10/19 04:53:03;;;;;;;;;;;;;;;12.67;67.87;102305.22;5062718;28;20334;-62
2022/10/19 04:55:28;;;;;;;;;;;;;;;12.67;67.81;102309.66;5063083;28;19924;-61
2022/10/19 04:57:53;;;;;;;;;;;;;;;12.65;68.18;102313.22;5067175;28;20455;-63
2022/10/19 05:00:18;;;;;;;;;;;;;;;12.65;68.14;102301.78;5068701;28;19928;-62
2022/10/19 05:02:45;;;;;;;;;;;;;;;12.67;68.23;102302.56;5067548;28;20341;-62
2022/10/19 05:05:11;;;;;;;;;;;;;;;12.70;68.06;102294.53;5068222;28;19921;-62
2022/10/19 05:07:36;;;;;;;;;;;;;;;12.71;68.06;102301.53;5068618;28;19934;-63
2022/10/19 05:10:01;;;;;;;;;;;;;;;12.70;68.21;102298.97;5063238;28;19920;-64
2022/10/19 05:12:27;;;;;;;;;;;;;;;12.70;68.17;102304.25;5066966;28;19924;-61
2022/10/19 05:14:52;;;;;;;;;;;;;;;12.66;68.18;102300.84;5065987;28;19924;-64
2022/10/19 05:17:17;;;;;;;;;;;;;;;12.62;68.38;102296.66;5067362;28;20032;-62
2022/10/19 05:19:43;;;;;;;;;;;;;;;12.58;68.33;102295.91;5060581;28;19931;-63
2022/10/19 05:22:08;;;;;;;;;;;;;;;12.53;68.49;102307.56;5059837;28;19932;-63
2022/10/19 05:24:33;;;;;;;;;;;;;;;12.45;68.55;102306.13;5064481;28;19929;-64
2022/10/19 05:26:59;;;;;;;;;;;;;;;12.40;68.99;102305.44;5064094;28;19921;-62
2022/10/19 05:29:24;;;;;;;;;;;;;;;12.40;68.89;102313.34;5066660;28;20025;-64
2022/10/19 05:31:49;;;;;;;;;;;;;;;12.35;68.85;102318.84;5064832;28;19920;-63
2022/10/19 05:34:15;;;;;;;;;;;;;;;12.31;69.18;102314.59;5063414;28;19946;-63
2022/10/19 05:36:40;;;;;;;;;;;;;;;12.27;69.27;102317.41;5068350;28;19924;-60
2022/10/19 05:39:07;;;;;;;;;;;;;;;12.27;69.46;102320.06;5063091;28;19970;-60
2022/10/19 05:41:32;;;;;;;;;;;;;;;12.26;69.35;102313.06;5065231;28;20009;-61
2022/10/19 05:43:59;;;;;;;;;;;;;;;12.24;69.20;102322.81;5066129;28;19974;-60
2022/10/19 05:46:25;;;;;;;;;;;;;;;12.22;69.30;102322.88;5068494;28;19924;-61
2022/10/19 05:48:50;;;;;;;;;;;;;;;12.24;69.47;102328.09;5070180;28;20043;-60
2022/10/19 05:51:17;;;;;;;;;;;;;;;12.21;69.38;102318.53;5064659;28;20389;-60
2022/10/19 05:53:42;;;;;;;;;;;;;;;12.18;69.43;102324.75;5063225;28;19928;-61
2022/10/19 05:56:08;;;;;;;;;;;;;;;12.13;69.36;102323.22;5062841;28;19982;-59
2022/10/19 05:58:34;;;;;;;;;;;;;;;12.08;69.52;102322.56;5066729;28;19975;-63
2022/10/19 06:01:00;;;;;;;;;;;;;;;12.08;69.52;102330.47;5057003;28;20011;-64
2022/10/19 06:03:26;;;;;;;;;;;;;;;12.08;69.58;102326.03;5062216;28;19939;-62
2022/10/19 06:05:52;;;;;;;;;;;;;;;12.15;69.53;102334.59;5059422;28;20391;-64
2022/10/19 06:08:18;;;;;;;;;;;;;;;12.16;69.37;102342.47;5057704;28;20890;-64
2022/10/19 06:10:44;;;;;;;;;;;;;;;12.12;69.34;102340.84;5041899;28;19927;-61
2022/10/19 06:13:09;;;;;;;;;;;;;;;12.09;69.64;102345.41;5052326;28;19929;-60
2022/10/19 06:15:35;;;;;;;;;;;;;;;12.05;69.71;102339.34;5060579;28;20393;-61
2022/10/19 06:18:03;;;;;;;;;;;;;;;12.06;69.59;102341.06;5060651;28;19982;-64
2022/10/19 06:20:28;;;;;;;;;;;;;;;12.10;69.49;102337.41;5057093;28;19920;-65
2022/10/19 06:22:54;;;;;;;;;;;;;;;12.13;69.40;102344.34;5067051;28;20002;-65
2022/10/19 06:25:19;;;;;;;;;;;;;;;12.11;69.48;102349.69;5067411;28;19917;-64
2022/10/19 06:27:44;;;;;;;;;;;;;;;12.10;69.71;102350.59;5069979;28;19962;-65
2022/10/19 06:30:10;;;;;;;;;;;;;;;12.10;69.49;102353.22;5050659;28;19920;-61
2022/10/19 06:32:35;;;;;;;;;;;;;;;12.12;69.54;102367.25;5048800;28;20586;-63
2022/10/19 06:35:00;;;;;;;;;;;;;;;12.13;69.32;102363.69;5066028;28;19924;-62
2022/10/19 06:37:28;;;;;;;;;;;;;;;12.10;69.31;102365.59;5067410;28;19931;-63
2022/10/19 06:39:54;;;;;;;;;;;;;;;12.10;69.43;102369.06;5060275;28;19943;-63
2022/10/19 06:42:25;;;;;;;;;;;;;;;12.07;69.54;102366.53;5066040;28;19929;-63
2022/10/19 06:44:50;;;;;;;;;;;;;;;12.07;69.51;102366.53;5067416;28;19970;-62
2022/10/19 06:47:16;;;;;;;;;;;;;;;12.08;69.63;102370.91;5066207;28;19920;-64
2022/10/19 06:49:42;;;;;;;;;;;;;;;12.07;69.71;102369.19;5064474;28;19928;-61
2022/10/19 06:52:07;;;;;;;;;;;;;;;12.06;69.81;102375.38;5050734;28;19924;-64
2022/10/19 06:54:32;;;;;;;;;;;;;;;12.02;70.04;102376.44;5054583;28;20037;-63
2022/10/19 06:56:58;;;;;;;;;;;;;;;12.00;70.20;102375.63;5057782;28;20554;-62
2022/10/19 06:59:23;;;;;;;;;;;;;;;12.00;70.46;102370.34;5063359;28;19928;-62
2022/10/19 07:01:48;;;;;;;;;;;;;;;12.03;70.54;102383.41;5060408;28;19924;-63
2022/10/19 07:04:14;;;;;;;;;;;;;;;12.03;70.42;102388.66;5063570;28;19918;-62
2022/10/19 07:06:39;;;;;;;;;;;;;;;12.04;70.43;102385.13;5065253;28;19927;-64
2022/10/19 07:09:04;;;;;;;;;;;;;;;12.03;70.56;102393.94;5064928;28;20019;-64
2022/10/19 07:11:30;;;;;;;;;;;;;;;12.04;70.78;102386.00;5066467;28;20347;-63
2022/10/19 07:13:55;;;;;;;;;;;;;;;12.08;70.61;102399.94;5065443;28;21063;-63
2022/10/19 07:16:21;;;;;;;;;;;;;;;12.10;70.56;102395.44;5066122;28;19927;-61
2022/10/19 07:18:46;;;;;;;;;;;;;;;12.11;70.62;102402.47;5063043;28;19959;-62
2022/10/19 07:21:13;;;;;;;;;;;;;;;12.12;70.62;102404.19;5062764;28;19932;-61
2022/10/19 07:23:39;;;;;;;;;;;;;;;12.16;70.62;102403.16;5065531;28;19921;-63
2022/10/19 07:26:15;;;;;;;;;;;;;;;12.19;70.56;102412.72;5067221;28;19921;-61
2022/10/19 07:28:42;;;;;;;;;;;;;;;12.22;70.49;102409.97;5064142;28;19920;-61
2022/10/19 07:31:08;;;;;;;;;;;;;;;12.26;70.53;102416.81;5065130;28;20011;-63
2022/10/19 07:33:34;;;;;;;;;;;;;;;12.28;70.59;102414.16;5065141;28;19923;-63
2022/10/19 07:36:04;;;;;;;;;;;;;;;12.28;70.71;102414.16;5065814;28;19924;-63
2022/10/19 07:38:30;;;;;;;;;;;;;;;12.29;70.63;102422.00;5049163;28;20007;-59
2022/10/19 07:41:03;;;;;;;;;;;;;;;12.35;70.77;102424.41;5066248;28;20011;-62
2022/10/19 07:43:28;;;;;;;;;;;;;;;12.38;70.81;102420.78;5066340;28;19944;-64
2022/10/19 07:46:00;;;;;;;;;;;;;;;12.45;70.59;102418.75;5066136;28;19999;-62
2022/10/19 07:48:26;;;;;;;;;;;;;;;12.52;70.64;102443.16;5063524;28;19920;-64
2022/10/19 07:50:51;;;;;;;;;;;;;;;12.54;70.59;102422.84;5063373;28;19925;-64
2022/10/19 07:53:17;;;;;;;;;;;;;;;12.59;70.36;102436.72;5065602;28;20527;-64
2022/10/19 07:55:42;;;;;;;;;;;;;;;12.63;70.42;102456.78;5064636;28;19924;-64
2022/10/19 07:58:07;;;;;;;;;;;;;;;12.66;70.37;102443.47;5065996;28;19935;-63
2022/10/19 08:00:33;;;;;;;;;;;;;;;12.65;70.23;102433.81;5070418;28;20018;-64
2022/10/19 08:02:58;;;;;;;;;;;;;;;12.65;70.37;102439.09;5063773;28;20069;-63
2022/10/19 08:05:23;;;;;;;;;;;;;;;12.67;70.20;102431.97;5070426;28;20300;-63
2022/10/19 08:07:48;;;;;;;;;;;;;;;12.72;70.34;102440.59;5062966;28;19928;-64
2022/10/19 08:10:14;;;;;;;;;;;;;;;12.76;70.25;102436.94;5061807;28;19924;-63
2022/10/19 08:12:39;;;;;;;;;;;;;;;12.77;70.01;102435.13;5065147;28;19920;-63
2022/10/19 08:15:06;;;;;;;;;;;;;;;12.80;69.81;102464.06;5042868;28;20013;-64
2022/10/19 08:17:33;;;;;;;;;;;;;;;12.81;70.05;102434.94;5063392;28;20469;-62
2022/10/19 08:19:58;;;;;;;;;;;;;;;12.85;69.65;102434.81;5065475;28;19939;-61
2022/10/19 08:22:24;;;;;;;;;;;;;;;12.84;69.66;102444.53;5063989;28;20296;-64
2022/10/19 08:24:49;;;;;;;;;;;;;;;12.85;69.60;102438.34;5070871;28;19975;-61
2022/10/19 08:27:14;;;;;;;;;;;;;;;12.86;69.88;102434.75;5063111;28;19956;-64
2022/10/19 08:29:40;;;;;;;;;;;;;;;12.86;69.83;102439.19;5063750;28;19928;-63
2022/10/19 08:32:05;;;;;;;;;;;;;;;12.86;69.54;102447.94;5061113;28;19956;-64
2022/10/19 08:34:32;;;;;;;;;;;;;;;12.87;69.49;102448.81;5066636;28;19974;-63
2022/10/19 08:36:57;;;;;;;;;;;;;;;12.86;69.47;102450.59;5062424;28;19959;-63
2022/10/19 08:39:22;;;;;;;;;;;;;;;12.86;69.42;102447.94;5064702;28;19971;-64
2022/10/19 08:41:54;;;;;;;;;;;;;;;12.88;69.42;102455.84;5046598;28;19928;-64
2022/10/19 08:44:37;;;;;;;;;;;;;;;12.91;69.37;102451.28;5063225;28;19920;-63
2022/10/19 08:47:02;;;;;;;;;;;;;;;12.93;69.39;102469.72;5062513;28;19924;-62
2022/10/19 08:49:28;;;;;;;;;;;;;;;12.97;69.13;102466.03;5070465;28;19927;-64
2022/10/19 08:51:56;;;;;;;;;;;;;;;12.98;68.99;102457.19;5067340;28;19955;-65
2022/10/19 08:54:21;;;;;;;;;;;;;;;13.01;68.87;102462.34;5060752;28;19920;-64
2022/10/19 08:57:10;;;;;;;;;;;;;;;13.06;68.59;102463.03;5063944;28;20344;-64
2022/10/19 08:59:40;;;;;;;;;;;;;;;13.08;68.29;102458.50;5027919;28;19930;-62
2022/10/19 09:02:20;;;;;;;;;;;;;;;13.15;68.16;102468.84;5064061;28;19920;-63
2022/10/19 09:04:53;;;;;;;;;;;;;;;13.17;67.80;102467.84;5068008;28;19917;-61
2022/10/19 09:07:35;;;;;;;;;;;;;;;13.19;67.60;102462.50;5065964;28;19916;-63
2022/10/19 09:10:23;;;;;;;;;;;;;;;13.22;67.37;102465.03;5065885;28;19999;-63
2022/10/19 09:12:49;;;;;;;;;;;;;;;13.27;66.97;102463.03;5065671;28;19966;-62
2022/10/19 09:15:17;;;;;;;;;;;;;;;13.29;66.37;102474.41;5063171;28;20058;-63
2022/10/19 09:17:42;;;;;;;;;;;;;;;13.27;66.02;102463.91;5060691;28;19959;-62
2022/10/19 09:20:15;;;;;;;;;;;;;;;13.29;65.66;102471.78;5068957;28;20027;-63
2022/10/19 09:22:42;;;;;;;;;;;;;;;13.30;65.86;102465.56;5060512;28;20262;-63
2022/10/19 09:25:12;;;;;;;;;;;;;;;13.31;65.46;102464.66;5067682;28;19916;-64
2022/10/19 09:27:38;;;;;;;;;;;;;;;13.35;65.65;102474.19;5064739;28;19978;-65
2022/10/19 09:30:09;;;;;;;;;;;;;;;13.37;65.50;102469.69;5065825;28;19924;-65
2022/10/19 09:32:37;;;;;;;;;;;;;;;13.42;65.45;102472.16;5064282;28;20807;-64
2022/10/19 09:35:14;;;;;;;;;;;;;;;13.49;65.47;102478.06;5063747;28;20393;-61
2022/10/19 09:37:43;;;;;;;;;;;;;;;13.55;65.35;102477.78;5068780;28;19917;-65
2022/10/19 09:40:13;;;;;;;;;;;;;;;13.60;65.38;102478.44;5045071;28;19965;-63
2022/10/19 09:42:38;;;;;;;;;;;;;;;13.63;65.30;102480.97;5063167;28;20447;-64
2022/10/19 09:45:24;;;;;;;;;;;;;;;13.64;64.89;102484.47;5064831;28;19929;-63
2022/10/19 09:47:51;;;;;;;;;;;;;;;13.64;64.23;102482.69;5063658;28;20471;-62
2022/10/19 09:50:28;;;;;;;;;;;;;;;13.58;63.56;102498.81;5063532;28;19927;-63
2022/10/19 09:52:53;;;;;;;;;;;;;;;13.52;63.49;102492.00;5070190;28;20442;-62
2022/10/19 09:55:23;;;;;;;;;;;;;;;13.52;63.40;102493.78;5062184;28;19971;-64
2022/10/19 09:57:57;;;;;;;;;;;;;;;13.53;63.33;102498.16;5070022;28;19920;-64
2022/10/19 10:00:24;;;;;;;;;;;;;;;13.57;63.45;102502.38;5069598;28;20003;-64
2022/10/19 10:02:50;;;;;;;;;;;;;;;13.63;63.46;102507.41;5067989;28;19932;-64
2022/10/19 10:05:16;;;;;;;;;;;;;;;13.71;63.47;102504.44;5064729;28;20015;-64
2022/10/19 10:07:42;;;;;;;;;;;;;;;13.80;63.46;102511.13;5069654;28;20027;-64
2022/10/19 10:10:08;;;;;;;;;;;;;;;13.81;62.68;102511.03;5069945;28;19921;-64
2022/10/19 10:12:34;;;;;;;;;;;;;;;13.82;61.93;102517.22;5052308;28;19968;-64
2022/10/19 10:15:01;;;;;;;;;;;;;;;13.80;61.76;102511.97;5060522;28;19983;-64
2022/10/19 10:17:29;;;;;;;;;;;;;;;13.83;61.42;102521.59;5065404;28;19983;-64
2022/10/19 10:19:57;;;;;;;;;;;;;;;13.86;61.41;102521.44;5064963;28;19920;-64
2022/10/19 10:22:26;;;;;;;;;;;;;;;13.88;61.12;102522.22;5069880;28;20385;-64
2022/10/19 10:24:53;;;;;;;;;;;;;;;13.88;60.42;102532.81;5071013;28;19927;-63
2022/10/19 10:27:45;;;;;;;;;;;;;;;13.85;60.21;102544.41;5062680;28;19932;-64
2022/10/19 10:30:15;;;;;;;;;;;;;;;13.77;59.48;102540.34;5060571;28;19921;-64
2022/10/19 10:32:48;;;;;;;;;;;;;;;13.73;59.95;102539.63;5067315;28;20062;-64
2022/10/19 10:35:18;;;;;;;;;;;;;;;13.74;60.16;102537.84;5065869;28;19962;-63
2022/10/19 10:37:44;;;;;;;;;;;;;;;13.77;60.35;102535.06;5065874;28;19974;-64
2022/10/19 10:40:30;;;;;;;;;;;;;;;13.81;60.54;102528.72;5060354;28;19960;-63
2022/10/19 10:42:56;;;;;;;;;;;;;;;13.85;60.32;102536.47;5062944;28;20019;-65
2022/10/19 10:45:24;;;;;;;;;;;;;;;13.86;60.36;102539.94;5063794;28;19920;-63
2022/10/19 10:47:51;;;;;;;;;;;;;;;13.91;60.45;102535.31;5060862;28;19924;-63
2022/10/19 10:50:31;;;;;;;;;;;;;;;13.90;60.37;102536.25;5064474;28;20353;-64
2022/10/19 10:52:58;;;;;;;;;;;;;;;13.91;60.70;102542.41;5064700;28;19938;-63
2022/10/19 10:55:25;;;;;;;;;;;;;;;13.85;60.36;102541.75;5065329;28;20876;-64
2022/10/19 10:57:52;;;;;;;;;;;;;;;13.83;60.84;102540.09;5065054;28;19929;-62
2022/10/19 11:00:23;;;;;;;;;;;;;;;13.83;60.84;102550.69;5068195;28;19916;-62
2022/10/19 11:02:51;;;;;;;;;;;;;;;13.84;60.73;102552.41;5062697;28;19924;-64
2022/10/19 11:05:22;;;;;;;;;;;;;;;13.83;60.79;102550.69;5060320;28;19954;-64
2022/10/19 11:07:51;;;;;;;;;;;;;;;13.78;60.43;102553.50;5067026;28;20431;-62
2022/10/19 11:10:43;;;;;;;;;;;;;;;13.71;60.59;102547.63;5067705;28;19930;-59
2022/10/19 11:13:14;;;;;;;;;;;;;;;13.66;60.73;102551.38;5035814;28;19963;-61
2022/10/19 11:15:54;;;;;;;;;;;;;;;13.62;60.69;102552.44;5046955;28;19949;-60
2022/10/19 11:18:19;;;;;;;;;;;;;;;13.61;60.60;102546.28;5061214;28;19920;-61
2022/10/19 11:20:53;;;;;;;;;;;;;;;13.64;60.99;102540.88;5062928;28;19947;-59
2022/10/19 11:23:24;;;;;;;;;;;;;;;13.68;60.96;102541.59;5062869;28;19935;-60
2022/10/19 11:26:16;;;;;;;;;;;;;;;13.72;60.71;102535.25;5064073;28;19932;-57
2022/10/19 11:28:54;;;;;;;;;;;;;;;13.76;60.47;102542.16;5067314;28;19959;-64
2022/10/19 11:31:31;;;;;;;;;;;;;;;13.78;60.37;102542.06;5068606;28;19924;-58
2022/10/19 11:33:56;;;;;;;;;;;;;;;13.84;60.40;102542.69;5067578;28;19924;-60
2022/10/19 11:36:31;;;;;;;;;;;;;;;13.91;60.15;102531.84;5064734;28;20331;-61
2022/10/19 11:39:11;;;;;;;;;;;;;;;13.94;60.12;102548.44;5063880;28;19929;-59
2022/10/19 11:41:57;;;;;;;;;;;;;;;14.01;59.65;102547.22;5068245;28;19979;-58
2022/10/19 11:44:31;;;;;;;;;;;;;;;14.07;59.36;102543.44;5065672;28;19978;-57
2022/10/19 11:47:15;;;;;;;;;;;;;;;14.10;58.83;102531.88;5059154;28;19920;-63
2022/10/19 11:49:46;;;;;;;;;;;;;;;14.13;59.04;102515.88;5070143;28;19916;-58
2022/10/19 11:52:27;;;;;;;;;;;;;;;14.21;59.07;102529.63;5064984;28;20018;-57
2022/10/19 11:54:58;;;;;;;;;;;;;;;14.26;58.68;102526.75;5065725;28;19923;-61
2022/10/19 11:57:46;;;;;;;;;;;;;;;14.31;58.64;102528.25;5069945;28;20377;-58
2022/10/19 12:00:19;;;;;;;;;;;;;;;14.33;58.54;102526.41;5028420;28;19922;-62
2022/10/19 12:02:47;;;;;;;;;;;;;;;14.35;58.51;102534.31;5065142;28;19939;-63
2022/10/19 12:05:18;;;;;;;;;;;;;;;14.37;58.28;102524.47;5048936;28;21083;-60
2022/10/19 12:08:00;;;;;;;;;;;;;;;14.37;58.39;102523.63;5054717;28;19917;-61
2022/10/19 12:10:26;;;;;;;;;;;;;;;14.40;58.52;102513.75;5069738;28;20897;-63
2022/10/19 12:12:54;;;;;;;;;;;;;;;14.41;58.18;102519.91;5057800;28;19965;-62
2022/10/19 12:15:32;;;;;;;;;;;;;;;14.37;58.12;102513.88;5060823;28;19924;-62
2022/10/19 12:18:26;;;;;;;;;;;;;;;14.28;58.13;102509.88;5057150;28;20320;-61
2022/10/19 12:20:54;;;;;;;;;;;;;;;14.20;58.20;102512.00;5028234;28;19986;-57
2022/10/19 12:23:29;;;;;;;;;;;;;;;14.13;58.20;102511.41;5056049;28;20874;-64
2022/10/19 12:25:57;;;;;;;;;;;;;;;14.12;58.10;102508.84;5058485;28;19924;-63
2022/10/19 12:28:31;;;;;;;;;;;;;;;14.10;58.45;102505.41;5060669;28;19921;-63
2022/10/19 12:30:57;;;;;;;;;;;;;;;14.14;58.43;102505.19;5054439;28;19924;-60
2022/10/19 12:33:35;;;;;;;;;;;;;;;14.17;57.99;102509.50;5057344;28;20380;-58
2022/10/19 12:36:19;;;;;;;;;;;;;;;14.21;57.79;102497.84;5059715;28;19920;-58
2022/10/19 12:38:50;;;;;;;;;;;;;;;14.32;57.72;102511.44;5056888;28;19935;-63
2022/10/19 12:41:26;;;;;;;;;;;;;;;14.40;57.20;102502.31;5059969;28;19931;-64